Goetzville, MI (49736)

3:17 PM EST on December 06, 2016 (GMT -0500)
| | Change Station

Elev -9999 ft 0.00 °N, 0.00 °E | Updated

Rain
Rain
38 °F
Feels Like 30 °F
N
11
Wind Variable Wind from SE
Gusts mph

Today
High -- | Low -- °F
--% Chance of Precip.
Yesterday
High -- | Low -- °F
Precip. -- in
Pressure 29.74 in
Visibility 10.0 miles
Clouds Overcast 3100 ft
Windchill 30 °F
Dew Point 34 °F
Humidity 85%
Rainfall --
Snow Depth Not available.
8:04 AM 4:51 PM
Waxing Crescent, 44% visible
METAR KDRM 062015Z AUTO 12011G16KT 10SM OVC031 04/00 A2974 RMK AO2 T00401003
Pressure 29.74 in
Visibility 10.0 miles
Clouds Overcast 3100 ft
Windchill 30 °F
Dew Point 34 °F
Humidity 85%
Rainfall --
Snow Depth Not available.
8:04 AM 4:51 PM
Waxing Crescent, 44% visible
METAR KDRM 062015Z AUTO 12011G16KT 10SM OVC031 04/00 A2974 RMK AO2 T00401003

10-Day Weather Forecast

Almanac

Astronomy

Dec. 06, 2016 Rise Set
Actual Time
Civil Twilight
Nautical Twilight
Astronomical Twilight
Moon
Length of Visible Light
Length of Day
Tomorrow will be .
, % of the Moon is Illuminated

Today's Extremes

State Highs State Lows

Community

WunderPhotos

Upload Photos

1,956,022 photos uploaded!

WunderBlog® & News

Nearby

Air Quality

  Air Quality AQ Index Pollutant
Not available.

Snow Depth

Station Depth Elevation

Earthquake Activity

City Distance Mag. Time & Date
Minimum magnitude displayed is 2.5.

Coastal Water Temperatures

Place Temperature

Stations

Nearby Weather Stations

Station Location Temp. Windchill Dew Point Humidity Wind Precip. Elev Updated Type
                   

Watches & Warnings

There are currently no watches in effect.